Alcira, Spain
Current Conditions -  °F | °C
As of 12:00 AM on Wednesday 28 Jan 2015 (Local Time) from LEVC Reporting Station
Clear Clear  
Wind Chill: 12°   Ceiling: Unl
Heat Index: 12°   Visibility: 6mi
Dew Point:   Wind: 14mph
Humidity: 44%   Direction: 310°NW
Pressure: 30.15"   Gusts: NA
Location:  39.15°N, 0.44°W
Report Text: LEVC 272300Z 31012KT CAVOK 12/M00 Q1021 NOSIG
Loading
Personal Weather Stations






























Interactive Weather Map New forecast layout! Learn more

10-Day Weather Forecast

Advertisements
Track Severe Weather on mobile